KFDW

Fairfield County Airport

Winnsboro, South Carolina, USA
METAR KFDW 181435Z AUTO 24008KT 224V284 10SM OVC011 24/22 A3008 RMK AO1
Observed Flight Rules
Aug-18 @ 14:35 UTC (16 minutes ago) Marginal Visual Flight Rules
Wind Visibility Clouds
240° at 8 knots 10 miles
  • Overcast at 1,100' AGL
Temperatures Readings
Current 24°C / 75°F
Dewpoint 22°C / 72°F
Humidity 89%
Altimeter 30.08" Hg
Pressure 1019 hPa
Elevation 176
METAR KFDW 181435Z AUTO 24008KT 224V284 10SM OVC011 24/22 A3008 RMK AO1
Observed Flight Rules
Aug-18 @ 14:35 UTC
(16 minutes ago)
MVFR
Wind Visibility
240° at 8 knots 10 miles
Clouds
  • Overcast at 1,100' AGL
Temperature Dewpoint
24°C / 75°F 22°C / 72°F
Humidity Altimeter Pressure
89% 30.08" Hg 1019 hPa